sensor_id;sensor_type;location;lat;lon;timestamp;P1;durP1;ratioP1;P2;durP2;ratioP2
76978;SDS011;65911;47.502;19.148;2023-09-19T00:01:55;6.10;;;3.58;;
76978;SDS011;65911;47.502;19.148;2023-09-19T00:04:59;9.32;;;3.88;;
76978;SDS011;65911;47.502;19.148;2023-09-19T00:08:01;7.72;;;3.97;;
76978;SDS011;65911;47.502;19.148;2023-09-19T00:11:06;7.60;;;3.50;;
76978;SDS011;65911;47.502;19.148;2023-09-19T00:14:10;9.90;;;3.60;;
76978;SDS011;65911;47.502;19.148;2023-09-19T00:17:15;5.68;;;3.45;;
76978;SDS011;65911;47.502;19.148;2023-09-19T00:20:18;6.88;;;3.75;;
76978;SDS011;65911;47.502;19.148;2023-09-19T00:23:20;5.67;;;3.67;;
76978;SDS011;65911;47.502;19.148;2023-09-19T00:26:23;6.70;;;3.28;;
76978;SDS011;65911;47.502;19.148;2023-09-19T00:29:26;9.55;;;3.55;;
76978;SDS011;65911;47.502;19.148;2023-09-19T00:32:33;6.93;;;3.38;;
76978;SDS011;65911;47.502;19.148;2023-09-19T00:35:36;6.57;;;3.90;;
76978;SDS011;65911;47.502;19.148;2023-09-19T00:38:38;9.23;;;3.55;;
76978;SDS011;65911;47.502;19.148;2023-09-19T00:41:41;7.95;;;3.50;;
76978;SDS011;65911;47.502;19.148;2023-09-19T00:44:44;6.87;;;3.57;;
76978;SDS011;65911;47.502;19.148;2023-09-19T00:47:49;6.75;;;3.50;;
76978;SDS011;65911;47.502;19.148;2023-09-19T00:50:52;8.80;;;3.67;;
76978;SDS011;65911;47.502;19.148;2023-09-19T00:53:55;6.40;;;3.37;;
76978;SDS011;65911;47.502;19.148;2023-09-19T00:56:58;7.25;;;3.17;;
76978;SDS011;65911;47.502;19.148;2023-09-19T01:00:01;6.18;;;3.75;;
76978;SDS011;65911;47.502;19.148;2023-09-19T01:03:08;7.18;;;3.72;;
76978;SDS011;65911;47.502;19.148;2023-09-19T01:06:11;6.00;;;3.60;;
76978;SDS011;65911;47.502;19.148;2023-09-19T01:09:14;7.13;;;3.28;;
76978;SDS011;65911;47.502;19.148;2023-09-19T01:12:21;8.70;;;3.38;;
76978;SDS011;65911;47.502;19.148;2023-09-19T01:26:05;9.30;;;3.90;;
76978;SDS011;65911;47.502;19.148;2023-09-19T01:32:41;5.80;;;3.75;;
76978;SDS011;65911;47.502;19.148;2023-09-19T01:35:45;6.88;;;3.83;;
76978;SDS011;65911;47.502;19.148;2023-09-19T01:38:47;9.60;;;4.50;;
76978;SDS011;65911;47.502;19.148;2023-09-19T01:52:04;8.90;;;3.88;;
76978;SDS011;65911;47.502;19.148;2023-09-19T01:55:09;9.07;;;3.65;;
76978;SDS011;65911;47.502;19.148;2023-09-19T01:58:24;9.53;;;3.93;;
76978;SDS011;65911;47.502;19.148;2023-09-19T02:01:32;8.73;;;4.28;;
76978;SDS011;65911;47.502;19.148;2023-09-19T02:04:35;6.70;;;3.92;;
76978;SDS011;65911;47.502;19.148;2023-09-19T02:07:38;7.40;;;4.03;;
76978;SDS011;65911;47.502;19.148;2023-09-19T02:10:40;10.57;;;4.22;;
76978;SDS011;65911;47.502;19.148;2023-09-19T02:13:43;7.90;;;4.32;;
76978;SDS011;65911;47.502;19.148;2023-09-19T02:16:46;8.95;;;4.35;;
76978;SDS011;65911;47.502;19.148;2023-09-19T02:19:48;9.20;;;4.20;;
76978;SDS011;65911;47.502;19.148;2023-09-19T02:22:51;8.48;;;4.25;;
76978;SDS011;65911;47.502;19.148;2023-09-19T02:25:54;6.53;;;4.13;;
76978;SDS011;65911;47.502;19.148;2023-09-19T02:28:56;6.17;;;4.17;;
76978;SDS011;65911;47.502;19.148;2023-09-19T02:31:59;8.18;;;4.45;;
76978;SDS011;65911;47.502;19.148;2023-09-19T02:35:01;10.43;;;5.07;;
76978;SDS011;65911;47.502;19.148;2023-09-19T02:38:04;9.43;;;4.43;;
76978;SDS011;65911;47.502;19.148;2023-09-19T02:41:08;6.55;;;4.05;;
76978;SDS011;65911;47.502;19.148;2023-09-19T02:44:12;7.25;;;4.10;;
76978;SDS011;65911;47.502;19.148;2023-09-19T02:47:14;10.85;;;4.50;;
76978;SDS011;65911;47.502;19.148;2023-09-19T02:50:18;7.10;;;4.10;;
76978;SDS011;65911;47.502;19.148;2023-09-19T02:53:21;10.68;;;4.28;;
76978;SDS011;65911;47.502;19.148;2023-09-19T02:56:24;9.35;;;4.40;;
76978;SDS011;65911;47.502;19.148;2023-09-19T02:59:27;8.80;;;4.10;;
76978;SDS011;65911;47.502;19.148;2023-09-19T03:02:31;7.70;;;4.47;;
76978;SDS011;65911;47.502;19.148;2023-09-19T03:05:36;6.65;;;4.13;;
76978;SDS011;65911;47.502;19.148;2023-09-19T03:08:40;9.15;;;4.00;;
76978;SDS011;65911;47.502;19.148;2023-09-19T03:11:45;9.70;;;4.47;;
76978;SDS011;65911;47.502;19.148;2023-09-19T03:14:48;6.30;;;4.38;;
76978;SDS011;65911;47.502;19.148;2023-09-19T03:17:52;7.57;;;4.95;;
76978;SDS011;65911;47.502;19.148;2023-09-19T03:20:57;7.97;;;4.07;;
76978;SDS011;65911;47.502;19.148;2023-09-19T03:24:03;8.55;;;4.82;;
76978;SDS011;65911;47.502;19.148;2023-09-19T03:27:08;8.45;;;4.53;;
76978;SDS011;65911;47.502;19.148;2023-09-19T03:30:12;8.67;;;4.30;;
76978;SDS011;65911;47.502;19.148;2023-09-19T03:33:16;9.48;;;4.47;;
76978;SDS011;65911;47.502;19.148;2023-09-19T03:36:19;7.28;;;3.80;;
76978;SDS011;65911;47.502;19.148;2023-09-19T03:39:21;8.02;;;4.60;;
76978;SDS011;65911;47.502;19.148;2023-09-19T03:42:24;7.45;;;4.30;;
76978;SDS011;65911;47.502;19.148;2023-09-19T03:45:29;10.52;;;4.95;;
76978;SDS011;65911;47.502;19.148;2023-09-19T03:48:31;13.15;;;4.40;;
76978;SDS011;65911;47.502;19.148;2023-09-19T03:51:33;7.50;;;4.40;;
76978;SDS011;65911;47.502;19.148;2023-09-19T03:54:36;11.02;;;5.43;;
76978;SDS011;65911;47.502;19.148;2023-09-19T03:57:39;8.93;;;4.75;;
76978;SDS011;65911;47.502;19.148;2023-09-19T04:00:41;8.57;;;4.77;;
76978;SDS011;65911;47.502;19.148;2023-09-19T04:03:43;10.75;;;4.60;;
76978;SDS011;65911;47.502;19.148;2023-09-19T04:06:53;11.95;;;5.35;;
76978;SDS011;65911;47.502;19.148;2023-09-19T04:09:55;9.50;;;5.60;;
76978;SDS011;65911;47.502;19.148;2023-09-19T04:12:57;8.38;;;4.63;;
76978;SDS011;65911;47.502;19.148;2023-09-19T04:16:00;9.60;;;4.88;;
76978;SDS011;65911;47.502;19.148;2023-09-19T04:19:02;9.20;;;5.25;;
76978;SDS011;65911;47.502;19.148;2023-09-19T04:22:05;9.83;;;5.20;;
76978;SDS011;65911;47.502;19.148;2023-09-19T04:25:08;9.93;;;5.10;;
76978;SDS011;65911;47.502;19.148;2023-09-19T04:28:10;7.97;;;4.93;;
76978;SDS011;65911;47.502;19.148;2023-09-19T04:31:13;10.53;;;5.20;;
76978;SDS011;65911;47.502;19.148;2023-09-19T04:34:16;8.75;;;4.75;;
76978;SDS011;65911;47.502;19.148;2023-09-19T04:37:18;11.82;;;5.05;;
76978;SDS011;65911;47.502;19.148;2023-09-19T04:40:21;10.10;;;5.50;;
76978;SDS011;65911;47.502;19.148;2023-09-19T04:43:25;9.70;;;5.30;;
76978;SDS011;65911;47.502;19.148;2023-09-19T04:46:27;7.10;;;4.40;;
76978;SDS011;65911;47.502;19.148;2023-09-19T04:49:30;11.38;;;4.35;;
76978;SDS011;65911;47.502;19.148;2023-09-19T04:52:32;5.77;;;3.40;;
76978;SDS011;65911;47.502;19.148;2023-09-19T04:55:35;7.43;;;3.33;;
76978;SDS011;65911;47.502;19.148;2023-09-19T04:58:38;8.50;;;3.20;;
76978;SDS011;65911;47.502;19.148;2023-09-19T05:01:40;10.37;;;3.03;;
76978;SDS011;65911;47.502;19.148;2023-09-19T05:04:42;6.13;;;2.25;;
76978;SDS011;65911;47.502;19.148;2023-09-19T05:07:45;6.18;;;1.92;;
76978;SDS011;65911;47.502;19.148;2023-09-19T05:10:48;6.55;;;2.10;;
76978;SDS011;65911;47.502;19.148;2023-09-19T05:13:51;3.85;;;1.80;;
76978;SDS011;65911;47.502;19.148;2023-09-19T05:16:54;7.13;;;1.77;;
76978;SDS011;65911;47.502;19.148;2023-09-19T05:19:57;3.45;;;1.48;;
76978;SDS011;65911;47.502;19.148;2023-09-19T05:23:26;4.27;;;1.03;;
76978;SDS011;65911;47.502;19.148;2023-09-19T05:26:29;2.40;;;0.88;;
76978;SDS011;65911;47.502;19.148;2023-09-19T05:29:31;3.17;;;1.00;;
76978;SDS011;65911;47.502;19.148;2023-09-19T05:32:35;3.90;;;1.10;;
76978;SDS011;65911;47.502;19.148;2023-09-19T05:35:37;6.45;;;0.82;;
76978;SDS011;65911;47.502;19.148;2023-09-19T05:38:41;1.52;;;0.50;;
76978;SDS011;65911;47.502;19.148;2023-09-19T05:41:44;1.80;;;0.40;;
76978;SDS011;65911;47.502;19.148;2023-09-19T05:44:46;3.50;;;0.68;;
76978;SDS011;65911;47.502;19.148;2023-09-19T05:47:49;2.78;;;0.70;;
76978;SDS011;65911;47.502;19.148;2023-09-19T05:50:53;2.55;;;0.40;;
76978;SDS011;65911;47.502;19.148;2023-09-19T05:53:55;1.57;;;0.40;;
76978;SDS011;65911;47.502;19.148;2023-09-19T05:56:58;2.53;;;0.60;;
76978;SDS011;65911;47.502;19.148;2023-09-19T06:00:00;1.33;;;0.50;;
76978;SDS011;65911;47.502;19.148;2023-09-19T06:03:23;3.40;;;0.47;;
76978;SDS011;65911;47.502;19.148;2023-09-19T06:06:27;0.50;;;0.20;;
76978;SDS011;65911;47.502;19.148;2023-09-19T06:09:29;0.90;;;0.40;;
76978;SDS011;65911;47.502;19.148;2023-09-19T06:12:41;1.92;;;0.20;;
76978;SDS011;65911;47.502;19.148;2023-09-19T06:15:46;0.88;;;0.25;;
76978;SDS011;65911;47.502;19.148;2023-09-19T06:18:55;1.85;;;0.50;;
76978;SDS011;65911;47.502;19.148;2023-09-19T06:21:58;5.72;;;0.40;;
76978;SDS011;65911;47.502;19.148;2023-09-19T06:25:01;0.80;;;0.20;;
76978;SDS011;65911;47.502;19.148;2023-09-19T06:28:05;3.05;;;0.10;;
76978;SDS011;65911;47.502;19.148;2023-09-19T06:31:10;0.38;;;0.20;;
76978;SDS011;65911;47.502;19.148;2023-09-19T06:34:12;0.80;;;0.30;;
76978;SDS011;65911;47.502;19.148;2023-09-19T06:37:17;1.65;;;0.20;;
76978;SDS011;65911;47.502;19.148;2023-09-19T06:40:20;0.30;;;0.22;;
76978;SDS011;65911;47.502;19.148;2023-09-19T06:43:25;1.75;;;0.30;;
76978;SDS011;65911;47.502;19.148;2023-09-19T06:46:48;0.75;;;0.50;;
76978;SDS011;65911;47.502;19.148;2023-09-19T06:49:53;0.43;;;0.35;;
76978;SDS011;65911;47.502;19.148;2023-09-19T06:52:55;1.58;;;0.30;;
76978;SDS011;65911;47.502;19.148;2023-09-19T06:56:00;0.93;;;0.10;;
76978;SDS011;65911;47.502;19.148;2023-09-19T06:59:02;0.32;;;0.13;;
76978;SDS011;65911;47.502;19.148;2023-09-19T07:02:07;0.57;;;0.10;;
76978;SDS011;65911;47.502;19.148;2023-09-19T07:05:10;0.60;;;0.13;;
76978;SDS011;65911;47.502;19.148;2023-09-19T07:08:23;0.63;;;0.13;;
76978;SDS011;65911;47.502;19.148;2023-09-19T07:11:32;1.08;;;0.30;;
76978;SDS011;65911;47.502;19.148;2023-09-19T07:14:41;0.28;;;0.10;;
76978;SDS011;65911;47.502;19.148;2023-09-19T07:17:48;1.08;;;0.30;;
76978;SDS011;65911;47.502;19.148;2023-09-19T07:20:56;0.65;;;0.40;;
76978;SDS011;65911;47.502;19.148;2023-09-19T07:24:03;2.35;;;0.40;;
76978;SDS011;65911;47.502;19.148;2023-09-19T07:27:05;0.60;;;0.27;;
76978;SDS011;65911;47.502;19.148;2023-09-19T07:30:08;1.33;;;0.30;;
76978;SDS011;65911;47.502;19.148;2023-09-19T07:33:13;2.75;;;0.30;;
76978;SDS011;65911;47.502;19.148;2023-09-19T07:36:29;1.10;;;0.80;;
76978;SDS011;65911;47.502;19.148;2023-09-19T07:39:35;0.68;;;0.20;;
76978;SDS011;65911;47.502;19.148;2023-09-19T07:42:39;2.33;;;0.25;;
76978;SDS011;65911;47.502;19.148;2023-09-19T07:45:43;1.15;;;0.47;;
76978;SDS011;65911;47.502;19.148;2023-09-19T07:48:46;6.53;;;0.50;;
76978;SDS011;65911;47.502;19.148;2023-09-19T07:51:53;0.85;;;0.40;;
76978;SDS011;65911;47.502;19.148;2023-09-19T07:54:56;1.73;;;0.70;;
76978;SDS011;65911;47.502;19.148;2023-09-19T07:58:06;2.37;;;0.30;;
76978;SDS011;65911;47.502;19.148;2023-09-19T08:01:10;2.08;;;0.50;;
76978;SDS011;65911;47.502;19.148;2023-09-19T08:04:19;1.25;;;0.30;;
76978;SDS011;65911;47.502;19.148;2023-09-19T08:07:24;2.53;;;0.30;;
76978;SDS011;65911;47.502;19.148;2023-09-19T08:10:29;1.88;;;0.40;;
76978;SDS011;65911;47.502;19.148;2023-09-19T08:13:43;2.67;;;0.32;;
76978;SDS011;65911;47.502;19.148;2023-09-19T08:16:47;3.28;;;0.30;;
76978;SDS011;65911;47.502;19.148;2023-09-19T08:19:49;3.80;;;0.30;;
76978;SDS011;65911;47.502;19.148;2023-09-19T08:22:55;0.40;;;0.20;;
76978;SDS011;65911;47.502;19.148;2023-09-19T08:26:00;2.72;;;0.50;;
76978;SDS011;65911;47.502;19.148;2023-09-19T08:29:08;1.50;;;0.30;;
76978;SDS011;65911;47.502;19.148;2023-09-19T08:32:14;1.20;;;0.60;;
76978;SDS011;65911;47.502;19.148;2023-09-19T08:35:17;3.22;;;0.35;;
76978;SDS011;65911;47.502;19.148;2023-09-19T08:38:19;1.87;;;0.70;;
76978;SDS011;65911;47.502;19.148;2023-09-19T08:41:22;2.40;;;0.38;;
76978;SDS011;65911;47.502;19.148;2023-09-19T08:44:24;2.28;;;0.38;;
76978;SDS011;65911;47.502;19.148;2023-09-19T08:47:37;2.92;;;0.30;;
76978;SDS011;65911;47.502;19.148;2023-09-19T08:51:03;0.95;;;0.60;;
76978;SDS011;65911;47.502;19.148;2023-09-19T08:54:10;2.25;;;0.40;;
76978;SDS011;65911;47.502;19.148;2023-09-19T08:57:23;3.97;;;0.90;;
76978;SDS011;65911;47.502;19.148;2023-09-19T09:00:27;1.37;;;0.57;;
76978;SDS011;65911;47.502;19.148;2023-09-19T09:03:35;2.78;;;0.40;;
76978;SDS011;65911;47.502;19.148;2023-09-19T09:06:40;2.63;;;0.60;;
76978;SDS011;65911;47.502;19.148;2023-09-19T09:09:45;1.97;;;0.37;;
76978;SDS011;65911;47.502;19.148;2023-09-19T09:12:53;1.63;;;0.50;;
76978;SDS011;65911;47.502;19.148;2023-09-19T09:16:07;1.35;;;0.15;;
76978;SDS011;65911;47.502;19.148;2023-09-19T09:19:10;1.08;;;0.50;;
76978;SDS011;65911;47.502;19.148;2023-09-19T09:22:14;2.17;;;0.73;;
76978;SDS011;65911;47.502;19.148;2023-09-19T09:25:18;1.27;;;0.70;;
76978;SDS011;65911;47.502;19.148;2023-09-19T09:28:21;2.22;;;0.40;;
76978;SDS011;65911;47.502;19.148;2023-09-19T09:31:25;1.93;;;0.67;;
76978;SDS011;65911;47.502;19.148;2023-09-19T09:34:33;2.58;;;0.65;;
76978;SDS011;65911;47.502;19.148;2023-09-19T09:37:36;3.15;;;0.75;;
76978;SDS011;65911;47.502;19.148;2023-09-19T09:40:53;1.47;;;0.37;;
76978;SDS011;65911;47.502;19.148;2023-09-19T09:44:20;2.28;;;0.57;;
76978;SDS011;65911;47.502;19.148;2023-09-19T09:47:51;1.42;;;0.40;;
76978;SDS011;65911;47.502;19.148;2023-09-19T09:50:57;3.80;;;0.47;;
76978;SDS011;65911;47.502;19.148;2023-09-19T09:54:15;3.28;;;0.32;;
76978;SDS011;65911;47.502;19.148;2023-09-19T09:57:20;4.15;;;0.63;;
76978;SDS011;65911;47.502;19.148;2023-09-19T10:00:29;3.50;;;0.63;;
76978;SDS011;65911;47.502;19.148;2023-09-19T10:03:59;6.13;;;0.60;;
76978;SDS011;65911;47.502;19.148;2023-09-19T10:07:05;1.67;;;0.45;;
76978;SDS011;65911;47.502;19.148;2023-09-19T10:10:13;0.68;;;0.60;;
76978;SDS011;65911;47.502;19.148;2023-09-19T10:13:19;3.90;;;0.80;;
76978;SDS011;65911;47.502;19.148;2023-09-19T10:16:23;1.52;;;0.60;;
76978;SDS011;65911;47.502;19.148;2023-09-19T10:19:37;1.98;;;0.45;;
76978;SDS011;65911;47.502;19.148;2023-09-19T10:22:49;1.48;;;0.60;;
76978;SDS011;65911;47.502;19.148;2023-09-19T10:25:59;1.25;;;0.50;;
76978;SDS011;65911;47.502;19.148;2023-09-19T10:29:03;1.75;;;0.85;;
76978;SDS011;65911;47.502;19.148;2023-09-19T10:32:12;1.67;;;0.75;;
76978;SDS011;65911;47.502;19.148;2023-09-19T10:35:21;1.83;;;0.60;;
76978;SDS011;65911;47.502;19.148;2023-09-19T10:38:24;2.28;;;0.80;;
76978;SDS011;65911;47.502;19.148;2023-09-19T10:41:28;2.38;;;0.75;;
76978;SDS011;65911;47.502;19.148;2023-09-19T10:44:32;2.00;;;0.80;;
76978;SDS011;65911;47.502;19.148;2023-09-19T10:47:36;2.05;;;0.73;;
76978;SDS011;65911;47.502;19.148;2023-09-19T10:50:51;2.35;;;0.88;;
76978;SDS011;65911;47.502;19.148;2023-09-19T10:54:05;5.07;;;0.82;;
76978;SDS011;65911;47.502;19.148;2023-09-19T10:57:19;1.42;;;0.70;;
76978;SDS011;65911;47.502;19.148;2023-09-19T11:00:26;2.53;;;0.70;;
76978;SDS011;65911;47.502;19.148;2023-09-19T11:03:35;4.07;;;1.52;;
76978;SDS011;65911;47.502;19.148;2023-09-19T11:06:59;2.93;;;0.87;;
76978;SDS011;65911;47.502;19.148;2023-09-19T11:10:06;2.78;;;1.08;;
76978;SDS011;65911;47.502;19.148;2023-09-19T11:13:26;1.08;;;0.45;;
76978;SDS011;65911;47.502;19.148;2023-09-19T11:20:21;2.28;;;0.55;;
76978;SDS011;65911;47.502;19.148;2023-09-19T11:23:26;1.88;;;0.80;;
76978;SDS011;65911;47.502;19.148;2023-09-19T11:26:49;1.63;;;0.70;;
76978;SDS011;65911;47.502;19.148;2023-09-19T11:33:30;1.85;;;0.55;;
76978;SDS011;65911;47.502;19.148;2023-09-19T11:36:39;1.40;;;0.75;;
76978;SDS011;65911;47.502;19.148;2023-09-19T11:40:06;1.57;;;0.50;;
76978;SDS011;65911;47.502;19.148;2023-09-19T11:43:36;0.93;;;0.50;;
76978;SDS011;65911;47.502;19.148;2023-09-19T11:46:52;2.90;;;0.50;;
76978;SDS011;65911;47.502;19.148;2023-09-19T11:50:04;1.73;;;0.60;;
76978;SDS011;65911;47.502;19.148;2023-09-19T11:53:13;2.35;;;0.40;;
76978;SDS011;65911;47.502;19.148;2023-09-19T11:56:20;1.30;;;0.40;;
76978;SDS011;65911;47.502;19.148;2023-09-19T11:59:43;1.40;;;0.75;;
76978;SDS011;65911;47.502;19.148;2023-09-19T12:02:46;2.15;;;0.65;;
76978;SDS011;65911;47.502;19.148;2023-09-19T12:05:53;2.10;;;0.50;;
76978;SDS011;65911;47.502;19.148;2023-09-19T12:08:55;2.20;;;0.57;;
76978;SDS011;65911;47.502;19.148;2023-09-19T12:11:59;1.53;;;0.30;;
76978;SDS011;65911;47.502;19.148;2023-09-19T12:15:01;1.85;;;0.57;;
76978;SDS011;65911;47.502;19.148;2023-09-19T12:18:05;3.05;;;0.60;;
76978;SDS011;65911;47.502;19.148;2023-09-19T12:24:30;3.08;;;0.47;;
76978;SDS011;65911;47.502;19.148;2023-09-19T12:27:43;4.32;;;0.68;;
76978;SDS011;65911;47.502;19.148;2023-09-19T12:30:52;1.92;;;0.50;;
76978;SDS011;65911;47.502;19.148;2023-09-19T12:33:57;4.72;;;0.80;;
76978;SDS011;65911;47.502;19.148;2023-09-19T12:37:04;1.73;;;0.50;;
76978;SDS011;65911;47.502;19.148;2023-09-19T12:40:24;1.70;;;0.70;;
76978;SDS011;65911;47.502;19.148;2023-09-19T12:43:31;0.90;;;0.30;;
76978;SDS011;65911;47.502;19.148;2023-09-19T12:46:35;1.63;;;0.68;;
76978;SDS011;65911;47.502;19.148;2023-09-19T12:53:24;1.63;;;0.50;;
76978;SDS011;65911;47.502;19.148;2023-09-19T12:56:27;2.65;;;0.55;;
76978;SDS011;65911;47.502;19.148;2023-09-19T12:59:31;1.10;;;0.50;;
76978;SDS011;65911;47.502;19.148;2023-09-19T13:02:34;1.98;;;0.52;;
76978;SDS011;65911;47.502;19.148;2023-09-19T13:05:46;1.42;;;0.40;;
76978;SDS011;65911;47.502;19.148;2023-09-19T13:09:09;2.90;;;0.50;;
76978;SDS011;65911;47.502;19.148;2023-09-19T13:12:58;6.25;;;0.90;;
76978;SDS011;65911;47.502;19.148;2023-09-19T13:15:53;1.13;;;0.40;;
76978;SDS011;65911;47.502;19.148;2023-09-19T13:19:03;1.67;;;0.70;;
76978;SDS011;65911;47.502;19.148;2023-09-19T13:25:41;3.47;;;0.60;;
76978;SDS011;65911;47.502;19.148;2023-09-19T13:28:47;3.67;;;0.63;;
76978;SDS011;65911;47.502;19.148;2023-09-19T13:31:52;1.63;;;0.43;;
76978;SDS011;65911;47.502;19.148;2023-09-19T13:34:55;1.85;;;0.77;;
76978;SDS011;65911;47.502;19.148;2023-09-19T13:37:57;1.95;;;0.68;;
76978;SDS011;65911;47.502;19.148;2023-09-19T13:41:05;2.55;;;0.80;;
76978;SDS011;65911;47.502;19.148;2023-09-19T13:44:08;1.80;;;0.70;;
76978;SDS011;65911;47.502;19.148;2023-09-19T13:47:12;1.83;;;0.70;;
76978;SDS011;65911;47.502;19.148;2023-09-19T13:50:17;1.05;;;0.70;;
76978;SDS011;65911;47.502;19.148;2023-09-19T13:53:25;1.75;;;0.65;;
76978;SDS011;65911;47.502;19.148;2023-09-19T13:56:28;2.67;;;0.70;;
76978;SDS011;65911;47.502;19.148;2023-09-19T13:59:30;3.22;;;0.65;;
76978;SDS011;65911;47.502;19.148;2023-09-19T14:02:33;2.22;;;0.90;;
76978;SDS011;65911;47.502;19.148;2023-09-19T14:05:35;2.10;;;0.98;;
76978;SDS011;65911;47.502;19.148;2023-09-19T14:08:37;1.13;;;0.82;;
76978;SDS011;65911;47.502;19.148;2023-09-19T14:11:40;1.60;;;1.02;;
76978;SDS011;65911;47.502;19.148;2023-09-19T14:14:44;4.13;;;0.90;;
76978;SDS011;65911;47.502;19.148;2023-09-19T14:17:49;1.60;;;0.80;;
76978;SDS011;65911;47.502;19.148;2023-09-19T14:20:51;2.83;;;0.90;;
76978;SDS011;65911;47.502;19.148;2023-09-19T14:23:55;2.72;;;0.70;;
76978;SDS011;65911;47.502;19.148;2023-09-19T14:26:57;3.60;;;0.90;;
76978;SDS011;65911;47.502;19.148;2023-09-19T14:30:03;3.20;;;1.25;;
76978;SDS011;65911;47.502;19.148;2023-09-19T14:33:06;3.97;;;1.23;;
76978;SDS011;65911;47.502;19.148;2023-09-19T14:36:09;1.48;;;0.70;;
76978;SDS011;65911;47.502;19.148;2023-09-19T14:39:13;2.35;;;1.00;;
76978;SDS011;65911;47.502;19.148;2023-09-19T14:42:15;2.55;;;0.73;;
76978;SDS011;65911;47.502;19.148;2023-09-19T14:45:20;2.60;;;0.70;;
76978;SDS011;65911;47.502;19.148;2023-09-19T14:48:22;2.30;;;0.83;;
76978;SDS011;65911;47.502;19.148;2023-09-19T14:51:29;1.63;;;0.70;;
76978;SDS011;65911;47.502;19.148;2023-09-19T14:54:33;1.38;;;0.80;;
76978;SDS011;65911;47.502;19.148;2023-09-19T14:57:36;1.83;;;0.70;;
76978;SDS011;65911;47.502;19.148;2023-09-19T15:00:42;2.08;;;0.73;;
76978;SDS011;65911;47.502;19.148;2023-09-19T15:03:47;2.78;;;0.90;;
76978;SDS011;65911;47.502;19.148;2023-09-19T15:06:52;3.42;;;0.73;;
76978;SDS011;65911;47.502;19.148;2023-09-19T15:09:57;4.50;;;0.80;;
76978;SDS011;65911;47.502;19.148;2023-09-19T15:12:59;1.85;;;0.60;;
76978;SDS011;65911;47.502;19.148;2023-09-19T15:16:02;1.55;;;0.73;;
76978;SDS011;65911;47.502;19.148;2023-09-19T15:19:06;5.60;;;0.70;;
76978;SDS011;65911;47.502;19.148;2023-09-19T15:22:09;2.00;;;0.98;;
76978;SDS011;65911;47.502;19.148;2023-09-19T15:25:12;2.97;;;0.70;;
76978;SDS011;65911;47.502;19.148;2023-09-19T15:28:16;4.30;;;0.67;;
76978;SDS011;65911;47.502;19.148;2023-09-19T15:31:18;2.17;;;0.80;;
76978;SDS011;65911;47.502;19.148;2023-09-19T15:34:21;3.47;;;0.70;;
76978;SDS011;65911;47.502;19.148;2023-09-19T15:37:23;1.80;;;0.60;;
76978;SDS011;65911;47.502;19.148;2023-09-19T15:40:28;1.50;;;0.57;;
76978;SDS011;65911;47.502;19.148;2023-09-19T15:43:32;4.40;;;1.60;;
76978;SDS011;65911;47.502;19.148;2023-09-19T15:46:36;2.17;;;0.90;;
76978;SDS011;65911;47.502;19.148;2023-09-19T15:49:39;1.20;;;0.60;;
76978;SDS011;65911;47.502;19.148;2023-09-19T15:52:41;1.50;;;0.47;;
76978;SDS011;65911;47.502;19.148;2023-09-19T15:55:44;1.10;;;0.50;;
76978;SDS011;65911;47.502;19.148;2023-09-19T15:58:47;1.60;;;0.50;;
76978;SDS011;65911;47.502;19.148;2023-09-19T16:01:50;1.83;;;0.70;;
76978;SDS011;65911;47.502;19.148;2023-09-19T16:04:54;2.00;;;0.70;;
76978;SDS011;65911;47.502;19.148;2023-09-19T16:08:02;1.83;;;0.60;;
76978;SDS011;65911;47.502;19.148;2023-09-19T16:11:16;1.83;;;0.65;;
76978;SDS011;65911;47.502;19.148;2023-09-19T16:14:21;2.83;;;1.00;;
76978;SDS011;65911;47.502;19.148;2023-09-19T16:17:23;1.02;;;0.73;;
76978;SDS011;65911;47.502;19.148;2023-09-19T16:20:26;3.10;;;0.50;;
76978;SDS011;65911;47.502;19.148;2023-09-19T16:23:30;1.70;;;0.77;;
76978;SDS011;65911;47.502;19.148;2023-09-19T16:26:35;1.52;;;0.65;;
76978;SDS011;65911;47.502;19.148;2023-09-19T16:29:37;2.97;;;0.70;;
76978;SDS011;65911;47.502;19.148;2023-09-19T16:32:39;3.60;;;0.77;;
76978;SDS011;65911;47.502;19.148;2023-09-19T16:35:42;1.42;;;0.90;;
76978;SDS011;65911;47.502;19.148;2023-09-19T16:38:45;1.00;;;0.50;;
76978;SDS011;65911;47.502;19.148;2023-09-19T16:41:50;2.05;;;0.80;;
76978;SDS011;65911;47.502;19.148;2023-09-19T16:44:53;1.35;;;0.73;;
76978;SDS011;65911;47.502;19.148;2023-09-19T16:47:57;3.47;;;1.38;;
76978;SDS011;65911;47.502;19.148;2023-09-19T16:51:00;1.20;;;0.70;;
76978;SDS011;65911;47.502;19.148;2023-09-19T16:54:07;1.83;;;0.60;;
76978;SDS011;65911;47.502;19.148;2023-09-19T16:57:10;3.15;;;0.98;;
76978;SDS011;65911;47.502;19.148;2023-09-19T17:00:13;1.20;;;0.70;;
76978;SDS011;65911;47.502;19.148;2023-09-19T17:03:19;3.03;;;0.70;;
76978;SDS011;65911;47.502;19.148;2023-09-19T17:06:22;2.25;;;1.00;;
76978;SDS011;65911;47.502;19.148;2023-09-19T17:09:26;4.70;;;1.20;;
76978;SDS011;65911;47.502;19.148;2023-09-19T17:12:28;2.63;;;1.10;;
76978;SDS011;65911;47.502;19.148;2023-09-19T17:15:33;2.92;;;1.10;;
76978;SDS011;65911;47.502;19.148;2023-09-19T17:18:35;2.53;;;0.88;;
76978;SDS011;65911;47.502;19.148;2023-09-19T17:21:38;1.67;;;1.10;;
76978;SDS011;65911;47.502;19.148;2023-09-19T17:24:40;3.65;;;0.90;;
76978;SDS011;65911;47.502;19.148;2023-09-19T17:27:42;3.25;;;1.10;;
76978;SDS011;65911;47.502;19.148;2023-09-19T17:30:49;1.53;;;1.20;;
76978;SDS011;65911;47.502;19.148;2023-09-19T17:33:52;3.80;;;1.20;;
76978;SDS011;65911;47.502;19.148;2023-09-19T17:36:55;1.83;;;1.00;;
76978;SDS011;65911;47.502;19.148;2023-09-19T17:40:00;3.25;;;1.33;;
76978;SDS011;65911;47.502;19.148;2023-09-19T17:43:06;4.15;;;1.20;;
76978;SDS011;65911;47.502;19.148;2023-09-19T17:46:10;3.58;;;1.17;;
76978;SDS011;65911;47.502;19.148;2023-09-19T17:49:18;3.13;;;1.13;;
76978;SDS011;65911;47.502;19.148;2023-09-19T17:52:22;2.90;;;1.40;;
76978;SDS011;65911;47.502;19.148;2023-09-19T17:55:24;2.33;;;1.33;;
76978;SDS011;65911;47.502;19.148;2023-09-19T17:58:27;1.88;;;1.15;;
76978;SDS011;65911;47.502;19.148;2023-09-19T18:01:30;4.00;;;1.30;;
76978;SDS011;65911;47.502;19.148;2023-09-19T18:04:34;3.20;;;1.27;;
76978;SDS011;65911;47.502;19.148;2023-09-19T18:07:37;2.03;;;1.08;;
76978;SDS011;65911;47.502;19.148;2023-09-19T18:10:39;2.95;;;1.13;;
76978;SDS011;65911;47.502;19.148;2023-09-19T18:13:43;2.47;;;1.30;;
76978;SDS011;65911;47.502;19.148;2023-09-19T18:16:47;2.10;;;1.13;;
76978;SDS011;65911;47.502;19.148;2023-09-19T18:19:50;2.08;;;1.10;;
76978;SDS011;65911;47.502;19.148;2023-09-19T18:22:53;2.40;;;1.10;;
76978;SDS011;65911;47.502;19.148;2023-09-19T18:26:11;2.33;;;0.85;;
76978;SDS011;65911;47.502;19.148;2023-09-19T18:29:16;5.00;;;1.00;;
76978;SDS011;65911;47.502;19.148;2023-09-19T18:32:19;3.87;;;1.47;;
76978;SDS011;65911;47.502;19.148;2023-09-19T18:35:21;3.25;;;1.27;;
76978;SDS011;65911;47.502;19.148;2023-09-19T18:38:25;3.25;;;1.42;;
76978;SDS011;65911;47.502;19.148;2023-09-19T18:41:28;2.83;;;1.60;;
76978;SDS011;65911;47.502;19.148;2023-09-19T18:44:31;2.92;;;1.30;;
76978;SDS011;65911;47.502;19.148;2023-09-19T18:47:34;2.70;;;1.30;;
76978;SDS011;65911;47.502;19.148;2023-09-19T18:50:36;1.98;;;1.20;;
76978;SDS011;65911;47.502;19.148;2023-09-19T18:53:39;3.63;;;1.00;;
76978;SDS011;65911;47.502;19.148;2023-09-19T18:56:43;2.47;;;1.05;;
76978;SDS011;65911;47.502;19.148;2023-09-19T18:59:46;2.17;;;1.20;;
76978;SDS011;65911;47.502;19.148;2023-09-19T19:02:50;2.17;;;1.00;;